sensor_id;sensor_type;location;lat;lon;timestamp;P1;durP1;ratioP1;P2;durP2;ratioP2
62933;SDS011;49038;47.600;19.242;2022-08-21T00:02:18;4.75;;;3.17;;
62933;SDS011;49038;47.600;19.242;2022-08-21T00:05:23;5.72;;;3.40;;
62933;SDS011;49038;47.600;19.242;2022-08-21T00:08:26;8.68;;;3.60;;
62933;SDS011;49038;47.600;19.242;2022-08-21T00:11:29;4.90;;;3.15;;
62933;SDS011;49038;47.600;19.242;2022-08-21T00:14:31;9.98;;;3.22;;
62933;SDS011;49038;47.600;19.242;2022-08-21T00:17:34;6.75;;;3.40;;
62933;SDS011;49038;47.600;19.242;2022-08-21T00:20:38;7.03;;;3.45;;
62933;SDS011;49038;47.600;19.242;2022-08-21T00:23:41;6.78;;;3.75;;
62933;SDS011;49038;47.600;19.242;2022-08-21T00:26:44;4.35;;;3.33;;
62933;SDS011;49038;47.600;19.242;2022-08-21T00:29:46;8.95;;;3.22;;
62933;SDS011;49038;47.600;19.242;2022-08-21T00:32:49;10.00;;;3.58;;
62933;SDS011;49038;47.600;19.242;2022-08-21T00:35:52;5.10;;;3.75;;
62933;SDS011;49038;47.600;19.242;2022-08-21T00:38:55;4.57;;;3.40;;
62933;SDS011;49038;47.600;19.242;2022-08-21T00:41:58;5.57;;;3.22;;
62933;SDS011;49038;47.600;19.242;2022-08-21T00:45:00;8.68;;;3.58;;
62933;SDS011;49038;47.600;19.242;2022-08-21T00:48:04;5.40;;;3.03;;
62933;SDS011;49038;47.600;19.242;2022-08-21T00:51:08;5.12;;;3.12;;
62933;SDS011;49038;47.600;19.242;2022-08-21T00:54:13;3.08;;;2.78;;
62933;SDS011;49038;47.600;19.242;2022-08-21T00:57:21;3.67;;;3.30;;
62933;SDS011;49038;47.600;19.242;2022-08-21T01:00:28;6.03;;;2.90;;
62933;SDS011;49038;47.600;19.242;2022-08-21T01:03:33;5.32;;;3.05;;
62933;SDS011;49038;47.600;19.242;2022-08-21T01:06:35;4.47;;;3.28;;
62933;SDS011;49038;47.600;19.242;2022-08-21T01:09:38;4.28;;;3.28;;
62933;SDS011;49038;47.600;19.242;2022-08-21T01:12:41;4.57;;;3.12;;
62933;SDS011;49038;47.600;19.242;2022-08-21T01:15:45;6.35;;;3.10;;
62933;SDS011;49038;47.600;19.242;2022-08-21T01:18:49;7.00;;;3.10;;
62933;SDS011;49038;47.600;19.242;2022-08-21T01:21:52;5.68;;;3.20;;
62933;SDS011;49038;47.600;19.242;2022-08-21T01:24:55;3.67;;;3.00;;
62933;SDS011;49038;47.600;19.242;2022-08-21T01:27:58;3.87;;;3.17;;
62933;SDS011;49038;47.600;19.242;2022-08-21T01:31:01;4.22;;;3.12;;
62933;SDS011;49038;47.600;19.242;2022-08-21T01:34:05;4.10;;;2.70;;
62933;SDS011;49038;47.600;19.242;2022-08-21T01:37:08;4.35;;;2.92;;
62933;SDS011;49038;47.600;19.242;2022-08-21T01:40:10;5.78;;;3.08;;
62933;SDS011;49038;47.600;19.242;2022-08-21T01:43:14;7.53;;;3.42;;
62933;SDS011;49038;47.600;19.242;2022-08-21T01:46:23;3.67;;;2.97;;
62933;SDS011;49038;47.600;19.242;2022-08-21T01:49:25;3.85;;;2.80;;
62933;SDS011;49038;47.600;19.242;2022-08-21T01:52:28;4.62;;;3.47;;
62933;SDS011;49038;47.600;19.242;2022-08-21T01:55:30;6.10;;;3.15;;
62933;SDS011;49038;47.600;19.242;2022-08-21T01:58:33;4.15;;;2.67;;
62933;SDS011;49038;47.600;19.242;2022-08-21T02:01:36;3.95;;;3.15;;
62933;SDS011;49038;47.600;19.242;2022-08-21T02:04:41;3.35;;;2.95;;
62933;SDS011;49038;47.600;19.242;2022-08-21T02:07:47;3.65;;;2.78;;
62933;SDS011;49038;47.600;19.242;2022-08-21T02:10:51;3.58;;;2.78;;
62933;SDS011;49038;47.600;19.242;2022-08-21T02:13:54;3.47;;;2.90;;
62933;SDS011;49038;47.600;19.242;2022-08-21T02:16:56;3.85;;;2.80;;
62933;SDS011;49038;47.600;19.242;2022-08-21T02:20:11;4.47;;;2.87;;
62933;SDS011;49038;47.600;19.242;2022-08-21T02:23:18;3.87;;;3.15;;
62933;SDS011;49038;47.600;19.242;2022-08-21T02:26:27;7.47;;;4.03;;
62933;SDS011;49038;47.600;19.242;2022-08-21T02:29:29;8.18;;;3.45;;
62933;SDS011;49038;47.600;19.242;2022-08-21T02:32:31;9.38;;;3.45;;
62933;SDS011;49038;47.600;19.242;2022-08-21T02:35:34;6.45;;;3.53;;
62933;SDS011;49038;47.600;19.242;2022-08-21T02:38:37;6.30;;;2.87;;
62933;SDS011;49038;47.600;19.242;2022-08-21T02:41:40;7.30;;;3.00;;
62933;SDS011;49038;47.600;19.242;2022-08-21T02:44:42;2.92;;;2.60;;
62933;SDS011;49038;47.600;19.242;2022-08-21T02:47:51;3.58;;;2.90;;
62933;SDS011;49038;47.600;19.242;2022-08-21T02:50:59;6.45;;;2.67;;
62933;SDS011;49038;47.600;19.242;2022-08-21T02:54:03;4.28;;;2.80;;
62933;SDS011;49038;47.600;19.242;2022-08-21T02:57:05;6.35;;;3.12;;
62933;SDS011;49038;47.600;19.242;2022-08-21T03:00:07;3.08;;;2.62;;
62933;SDS011;49038;47.600;19.242;2022-08-21T03:03:12;4.10;;;2.62;;
62933;SDS011;49038;47.600;19.242;2022-08-21T03:06:16;9.90;;;3.00;;
62933;SDS011;49038;47.600;19.242;2022-08-21T03:09:19;6.68;;;3.97;;
62933;SDS011;49038;47.600;19.242;2022-08-21T03:12:22;4.55;;;3.60;;
62933;SDS011;49038;47.600;19.242;2022-08-21T03:15:27;4.32;;;3.10;;
62933;SDS011;49038;47.600;19.242;2022-08-21T03:18:29;3.45;;;2.55;;
62933;SDS011;49038;47.600;19.242;2022-08-21T03:21:32;4.22;;;3.20;;
62933;SDS011;49038;47.600;19.242;2022-08-21T03:24:35;3.20;;;2.90;;
62933;SDS011;49038;47.600;19.242;2022-08-21T03:27:37;11.90;;;3.08;;
62933;SDS011;49038;47.600;19.242;2022-08-21T03:30:42;4.97;;;2.92;;
62933;SDS011;49038;47.600;19.242;2022-08-21T03:33:45;5.55;;;3.05;;
62933;SDS011;49038;47.600;19.242;2022-08-21T03:36:48;3.60;;;3.05;;
62933;SDS011;49038;47.600;19.242;2022-08-21T03:39:50;3.72;;;2.95;;
62933;SDS011;49038;47.600;19.242;2022-08-21T03:42:53;10.10;;;3.05;;
62933;SDS011;49038;47.600;19.242;2022-08-21T03:45:55;3.60;;;3.15;;
62933;SDS011;49038;47.600;19.242;2022-08-21T03:48:57;19.52;;;3.15;;
62933;SDS011;49038;47.600;19.242;2022-08-21T03:52:00;3.95;;;3.25;;
62933;SDS011;49038;47.600;19.242;2022-08-21T03:55:03;13.80;;;3.55;;
62933;SDS011;49038;47.600;19.242;2022-08-21T03:58:05;5.75;;;3.30;;
62933;SDS011;49038;47.600;19.242;2022-08-21T04:01:18;9.25;;;4.07;;
62933;SDS011;49038;47.600;19.242;2022-08-21T04:04:20;11.93;;;3.65;;
62933;SDS011;49038;47.600;19.242;2022-08-21T04:07:22;4.70;;;3.05;;
62933;SDS011;49038;47.600;19.242;2022-08-21T04:10:25;6.00;;;3.00;;
62933;SDS011;49038;47.600;19.242;2022-08-21T04:13:28;4.43;;;3.45;;
62933;SDS011;49038;47.600;19.242;2022-08-21T04:16:31;4.32;;;3.30;;
62933;SDS011;49038;47.600;19.242;2022-08-21T04:19:33;5.87;;;3.53;;
62933;SDS011;49038;47.600;19.242;2022-08-21T04:22:35;5.18;;;3.83;;
62933;SDS011;49038;47.600;19.242;2022-08-21T04:25:37;8.13;;;3.95;;
62933;SDS011;49038;47.600;19.242;2022-08-21T04:28:40;10.18;;;3.95;;
62933;SDS011;49038;47.600;19.242;2022-08-21T04:31:45;7.05;;;4.07;;
62933;SDS011;49038;47.600;19.242;2022-08-21T04:34:47;5.18;;;4.10;;
62933;SDS011;49038;47.600;19.242;2022-08-21T04:37:49;4.65;;;3.25;;
62933;SDS011;49038;47.600;19.242;2022-08-21T04:40:52;7.03;;;3.05;;
62933;SDS011;49038;47.600;19.242;2022-08-21T04:43:54;7.18;;;3.30;;
62933;SDS011;49038;47.600;19.242;2022-08-21T04:46:59;4.70;;;3.70;;
62933;SDS011;49038;47.600;19.242;2022-08-21T04:50:02;12.55;;;3.50;;
62933;SDS011;49038;47.600;19.242;2022-08-21T04:53:09;7.85;;;4.32;;
62933;SDS011;49038;47.600;19.242;2022-08-21T04:56:15;5.70;;;3.45;;
62933;SDS011;49038;47.600;19.242;2022-08-21T04:59:44;6.30;;;3.75;;
62933;SDS011;49038;47.600;19.242;2022-08-21T05:02:47;7.05;;;3.78;;
62933;SDS011;49038;47.600;19.242;2022-08-21T05:05:50;8.80;;;4.80;;
62933;SDS011;49038;47.600;19.242;2022-08-21T05:08:53;12.02;;;4.12;;
62933;SDS011;49038;47.600;19.242;2022-08-21T05:12:02;5.25;;;3.80;;
62933;SDS011;49038;47.600;19.242;2022-08-21T05:15:05;6.25;;;4.05;;
62933;SDS011;49038;47.600;19.242;2022-08-21T05:18:12;6.62;;;3.58;;
62933;SDS011;49038;47.600;19.242;2022-08-21T05:21:15;5.53;;;3.95;;
62933;SDS011;49038;47.600;19.242;2022-08-21T05:24:17;6.95;;;4.07;;
62933;SDS011;49038;47.600;19.242;2022-08-21T05:27:19;5.37;;;3.85;;
62933;SDS011;49038;47.600;19.242;2022-08-21T05:30:24;8.40;;;4.32;;
62933;SDS011;49038;47.600;19.242;2022-08-21T05:33:29;11.07;;;4.53;;
62933;SDS011;49038;47.600;19.242;2022-08-21T05:36:32;6.40;;;4.53;;
62933;SDS011;49038;47.600;19.242;2022-08-21T05:39:34;11.10;;;4.18;;
62933;SDS011;49038;47.600;19.242;2022-08-21T05:42:56;8.05;;;4.32;;
62933;SDS011;49038;47.600;19.242;2022-08-21T05:46:01;9.48;;;4.70;;
62933;SDS011;49038;47.600;19.242;2022-08-21T05:49:07;7.43;;;4.53;;
62933;SDS011;49038;47.600;19.242;2022-08-21T05:52:09;8.65;;;5.07;;
62933;SDS011;49038;47.600;19.242;2022-08-21T05:55:12;10.38;;;5.22;;
62933;SDS011;49038;47.600;19.242;2022-08-21T05:58:15;7.05;;;4.78;;
62933;SDS011;49038;47.600;19.242;2022-08-21T06:01:19;11.52;;;5.22;;
62933;SDS011;49038;47.600;19.242;2022-08-21T06:04:21;12.27;;;5.30;;
62933;SDS011;49038;47.600;19.242;2022-08-21T06:07:24;7.40;;;5.00;;
62933;SDS011;49038;47.600;19.242;2022-08-21T06:10:26;11.63;;;5.32;;
62933;SDS011;49038;47.600;19.242;2022-08-21T06:13:28;10.95;;;4.85;;
62933;SDS011;49038;47.600;19.242;2022-08-21T06:16:31;12.85;;;6.03;;
62933;SDS011;49038;47.600;19.242;2022-08-21T06:19:34;7.68;;;5.03;;
62933;SDS011;49038;47.600;19.242;2022-08-21T06:22:36;10.88;;;5.28;;
62933;SDS011;49038;47.600;19.242;2022-08-21T06:25:38;6.95;;;4.97;;
62933;SDS011;49038;47.600;19.242;2022-08-21T06:28:41;7.85;;;5.18;;
62933;SDS011;49038;47.600;19.242;2022-08-21T06:31:44;8.15;;;5.00;;
62933;SDS011;49038;47.600;19.242;2022-08-21T06:34:48;7.82;;;5.07;;
62933;SDS011;49038;47.600;19.242;2022-08-21T06:37:50;9.65;;;4.50;;
62933;SDS011;49038;47.600;19.242;2022-08-21T06:40:56;7.60;;;4.75;;
62933;SDS011;49038;47.600;19.242;2022-08-21T06:43:58;6.95;;;4.72;;
62933;SDS011;49038;47.600;19.242;2022-08-21T06:47:01;7.50;;;4.40;;
62933;SDS011;49038;47.600;19.242;2022-08-21T06:50:04;10.05;;;4.55;;
62933;SDS011;49038;47.600;19.242;2022-08-21T06:53:10;11.05;;;4.70;;
62933;SDS011;49038;47.600;19.242;2022-08-21T06:56:13;9.82;;;4.30;;
62933;SDS011;49038;47.600;19.242;2022-08-21T06:59:16;6.35;;;4.45;;
62933;SDS011;49038;47.600;19.242;2022-08-21T07:02:18;7.32;;;4.78;;
62933;SDS011;49038;47.600;19.242;2022-08-21T07:05:21;7.35;;;4.07;;
62933;SDS011;49038;47.600;19.242;2022-08-21T07:08:24;7.78;;;4.32;;
62933;SDS011;49038;47.600;19.242;2022-08-21T07:11:27;10.32;;;4.60;;
62933;SDS011;49038;47.600;19.242;2022-08-21T07:14:30;12.02;;;5.32;;
62933;SDS011;49038;47.600;19.242;2022-08-21T07:17:32;9.65;;;4.78;;
62933;SDS011;49038;47.600;19.242;2022-08-21T07:20:34;6.45;;;4.18;;
62933;SDS011;49038;47.600;19.242;2022-08-21T07:23:38;7.45;;;4.20;;
62933;SDS011;49038;47.600;19.242;2022-08-21T07:26:43;6.68;;;4.68;;
62933;SDS011;49038;47.600;19.242;2022-08-21T07:29:45;7.32;;;4.37;;
62933;SDS011;49038;47.600;19.242;2022-08-21T07:32:47;6.78;;;4.82;;
62933;SDS011;49038;47.600;19.242;2022-08-21T07:35:53;7.87;;;4.80;;
62933;SDS011;49038;47.600;19.242;2022-08-21T07:38:56;4.82;;;4.18;;
62933;SDS011;49038;47.600;19.242;2022-08-21T07:41:59;6.47;;;4.30;;
62933;SDS011;49038;47.600;19.242;2022-08-21T07:45:07;6.40;;;4.65;;
62933;SDS011;49038;47.600;19.242;2022-08-21T07:48:10;6.35;;;4.57;;
62933;SDS011;49038;47.600;19.242;2022-08-21T07:51:13;9.23;;;4.47;;
62933;SDS011;49038;47.600;19.242;2022-08-21T07:54:16;7.78;;;4.40;;
62933;SDS011;49038;47.600;19.242;2022-08-21T07:57:29;5.05;;;3.95;;
62933;SDS011;49038;47.600;19.242;2022-08-21T08:00:32;7.07;;;4.00;;
62933;SDS011;49038;47.600;19.242;2022-08-21T08:03:34;9.10;;;4.18;;
62933;SDS011;49038;47.600;19.242;2022-08-21T08:06:37;5.62;;;3.95;;
62933;SDS011;49038;47.600;19.242;2022-08-21T08:09:39;5.62;;;3.97;;
62933;SDS011;49038;47.600;19.242;2022-08-21T08:12:42;11.63;;;4.65;;
62933;SDS011;49038;47.600;19.242;2022-08-21T08:15:44;5.80;;;4.78;;
62933;SDS011;49038;47.600;19.242;2022-08-21T08:18:47;5.62;;;4.03;;
62933;SDS011;49038;47.600;19.242;2022-08-21T08:21:49;6.07;;;3.70;;
62933;SDS011;49038;47.600;19.242;2022-08-21T08:24:52;6.53;;;3.78;;
62933;SDS011;49038;47.600;19.242;2022-08-21T08:27:55;5.30;;;4.05;;
62933;SDS011;49038;47.600;19.242;2022-08-21T08:30:57;9.82;;;4.32;;
62933;SDS011;49038;47.600;19.242;2022-08-21T08:34:00;7.45;;;4.30;;
62933;SDS011;49038;47.600;19.242;2022-08-21T08:37:02;7.20;;;3.87;;
62933;SDS011;49038;47.600;19.242;2022-08-21T08:40:17;4.68;;;3.53;;
62933;SDS011;49038;47.600;19.242;2022-08-21T08:43:24;7.32;;;4.37;;
62933;SDS011;49038;47.600;19.242;2022-08-21T08:46:44;10.18;;;4.12;;
62933;SDS011;49038;47.600;19.242;2022-08-21T08:50:00;5.55;;;3.95;;
62933;SDS011;49038;47.600;19.242;2022-08-21T08:53:10;7.28;;;4.95;;
62933;SDS011;49038;47.600;19.242;2022-08-21T08:56:14;5.45;;;3.80;;
62933;SDS011;49038;47.600;19.242;2022-08-21T08:59:39;6.22;;;3.97;;
62933;SDS011;49038;47.600;19.242;2022-08-21T09:02:45;4.87;;;3.53;;
62933;SDS011;49038;47.600;19.242;2022-08-21T09:05:49;5.07;;;3.83;;
62933;SDS011;49038;47.600;19.242;2022-08-21T09:29:20;6.37;;;3.60;;
62933;SDS011;49038;47.600;19.242;2022-08-21T09:32:28;4.75;;;3.92;;
62933;SDS011;49038;47.600;19.242;2022-08-21T09:35:51;4.03;;;3.53;;
62933;SDS011;49038;47.600;19.242;2022-08-21T09:38:55;6.85;;;3.90;;
62933;SDS011;49038;47.600;19.242;2022-08-21T09:42:02;5.95;;;3.60;;
62933;SDS011;49038;47.600;19.242;2022-08-21T09:45:11;5.72;;;3.60;;
62933;SDS011;49038;47.600;19.242;2022-08-21T09:48:22;5.35;;;3.87;;
62933;SDS011;49038;47.600;19.242;2022-08-21T09:51:29;4.90;;;3.33;;
62933;SDS011;49038;47.600;19.242;2022-08-21T09:54:38;6.40;;;3.42;;
62933;SDS011;49038;47.600;19.242;2022-08-21T09:57:43;4.57;;;3.72;;
62933;SDS011;49038;47.600;19.242;2022-08-21T10:00:58;5.10;;;3.90;;
62933;SDS011;49038;47.600;19.242;2022-08-21T10:07:14;6.43;;;4.10;;
62933;SDS011;49038;47.600;19.242;2022-08-21T10:10:21;6.20;;;3.70;;
62933;SDS011;49038;47.600;19.242;2022-08-21T10:13:29;8.52;;;4.00;;
62933;SDS011;49038;47.600;19.242;2022-08-21T10:16:46;6.43;;;4.00;;
62933;SDS011;49038;47.600;19.242;2022-08-21T10:20:03;5.90;;;3.70;;
62933;SDS011;49038;47.600;19.242;2022-08-21T10:29:56;11.30;;;3.75;;
62933;SDS011;49038;47.600;19.242;2022-08-21T10:36:29;4.90;;;3.45;;
62933;SDS011;49038;47.600;19.242;2022-08-21T10:39:47;6.50;;;4.28;;
62933;SDS011;49038;47.600;19.242;2022-08-21T10:47:13;7.05;;;4.28;;
62933;SDS011;49038;47.600;19.242;2022-08-21T10:56:49;5.03;;;3.35;;
62933;SDS011;49038;47.600;19.242;2022-08-21T10:59:57;6.00;;;3.75;;
62933;SDS011;49038;47.600;19.242;2022-08-21T11:03:14;7.72;;;3.80;;
62933;SDS011;49038;47.600;19.242;2022-08-21T11:06:27;8.02;;;3.00;;
62933;SDS011;49038;47.600;19.242;2022-08-21T11:09:31;5.82;;;3.37;;
62933;SDS011;49038;47.600;19.242;2022-08-21T11:12:40;5.03;;;3.25;;
62933;SDS011;49038;47.600;19.242;2022-08-21T11:15:55;5.60;;;3.12;;
62933;SDS011;49038;47.600;19.242;2022-08-21T11:19:09;8.45;;;2.92;;
62933;SDS011;49038;47.600;19.242;2022-08-21T11:22:16;5.50;;;3.70;;
62933;SDS011;49038;47.600;19.242;2022-08-21T11:25:27;3.95;;;3.20;;
62933;SDS011;49038;47.600;19.242;2022-08-21T11:28:58;6.60;;;3.58;;
62933;SDS011;49038;47.600;19.242;2022-08-21T11:35:39;7.45;;;4.20;;
62933;SDS011;49038;47.600;19.242;2022-08-21T11:38:43;5.33;;;4.00;;
62933;SDS011;49038;47.600;19.242;2022-08-21T11:55:00;5.15;;;3.80;;
62933;SDS011;49038;47.600;19.242;2022-08-21T12:01:30;5.68;;;3.75;;
62933;SDS011;49038;47.600;19.242;2022-08-21T12:04:54;6.90;;;3.90;;
62933;SDS011;49038;47.600;19.242;2022-08-21T12:08:04;6.40;;;3.85;;
62933;SDS011;49038;47.600;19.242;2022-08-21T12:11:28;6.60;;;4.12;;
62933;SDS011;49038;47.600;19.242;2022-08-21T12:18:28;7.82;;;4.00;;
62933;SDS011;49038;47.600;19.242;2022-08-21T12:24:45;8.80;;;4.20;;
62933;SDS011;49038;47.600;19.242;2022-08-21T12:27:53;5.68;;;4.00;;
62933;SDS011;49038;47.600;19.242;2022-08-21T12:31:05;8.40;;;4.03;;
62933;SDS011;49038;47.600;19.242;2022-08-21T12:34:20;4.87;;;3.60;;
62933;SDS011;49038;47.600;19.242;2022-08-21T12:40:50;5.90;;;3.83;;
62933;SDS011;49038;47.600;19.242;2022-08-21T12:44:05;5.30;;;3.75;;
62933;SDS011;49038;47.600;19.242;2022-08-21T12:51:13;6.50;;;4.05;;
62933;SDS011;49038;47.600;19.242;2022-08-21T12:54:28;8.93;;;4.32;;
62933;SDS011;49038;47.600;19.242;2022-08-21T12:57:32;8.18;;;4.12;;
62933;SDS011;49038;47.600;19.242;2022-08-21T13:00:38;7.15;;;3.83;;
62933;SDS011;49038;47.600;19.242;2022-08-21T13:03:53;7.45;;;4.32;;
62933;SDS011;49038;47.600;19.242;2022-08-21T13:07:09;6.07;;;3.62;;
62933;SDS011;49038;47.600;19.242;2022-08-21T13:10:17;11.10;;;4.25;;
62933;SDS011;49038;47.600;19.242;2022-08-21T13:13:26;6.95;;;4.12;;
62933;SDS011;49038;47.600;19.242;2022-08-21T13:16:29;6.65;;;4.30;;
62933;SDS011;49038;47.600;19.242;2022-08-21T13:19:33;7.80;;;3.90;;
62933;SDS011;49038;47.600;19.242;2022-08-21T13:22:42;8.30;;;3.75;;
62933;SDS011;49038;47.600;19.242;2022-08-21T13:25:45;5.10;;;3.20;;
62933;SDS011;49038;47.600;19.242;2022-08-21T13:28:48;6.25;;;3.87;;
62933;SDS011;49038;47.600;19.242;2022-08-21T13:31:52;6.78;;;3.45;;
62933;SDS011;49038;47.600;19.242;2022-08-21T13:35:07;5.85;;;3.80;;
62933;SDS011;49038;47.600;19.242;2022-08-21T13:38:11;7.50;;;3.83;;
62933;SDS011;49038;47.600;19.242;2022-08-21T13:41:21;6.32;;;3.22;;
62933;SDS011;49038;47.600;19.242;2022-08-21T13:47:37;6.00;;;3.55;;
62933;SDS011;49038;47.600;19.242;2022-08-21T13:50:41;9.13;;;3.65;;
62933;SDS011;49038;47.600;19.242;2022-08-21T13:53:45;7.15;;;3.55;;
62933;SDS011;49038;47.600;19.242;2022-08-21T13:56:54;6.25;;;3.47;;
62933;SDS011;49038;47.600;19.242;2022-08-21T14:06:43;5.85;;;3.28;;
62933;SDS011;49038;47.600;19.242;2022-08-21T14:09:46;5.50;;;3.55;;
62933;SDS011;49038;47.600;19.242;2022-08-21T14:12:51;6.62;;;4.00;;
62933;SDS011;49038;47.600;19.242;2022-08-21T14:15:57;3.30;;;2.85;;
62933;SDS011;49038;47.600;19.242;2022-08-21T14:25:41;6.70;;;3.20;;
62933;SDS011;49038;47.600;19.242;2022-08-21T14:28:45;3.15;;;2.60;;
62933;SDS011;49038;47.600;19.242;2022-08-21T14:31:55;4.72;;;2.85;;
62933;SDS011;49038;47.600;19.242;2022-08-21T14:34:59;4.78;;;3.05;;
62933;SDS011;49038;47.600;19.242;2022-08-21T14:38:01;5.15;;;3.37;;
62933;SDS011;49038;47.600;19.242;2022-08-21T14:41:07;6.78;;;2.75;;
62933;SDS011;49038;47.600;19.242;2022-08-21T14:44:13;5.40;;;3.10;;
62933;SDS011;49038;47.600;19.242;2022-08-21T14:47:16;4.43;;;2.53;;
62933;SDS011;49038;47.600;19.242;2022-08-21T14:50:19;3.17;;;2.80;;
62933;SDS011;49038;47.600;19.242;2022-08-21T14:53:21;4.35;;;2.87;;
62933;SDS011;49038;47.600;19.242;2022-08-21T14:56:23;3.55;;;2.53;;
62933;SDS011;49038;47.600;19.242;2022-08-21T14:59:27;2.00;;;1.87;;
62933;SDS011;49038;47.600;19.242;2022-08-21T15:02:30;5.57;;;2.87;;
62933;SDS011;49038;47.600;19.242;2022-08-21T15:05:32;3.58;;;2.70;;
62933;SDS011;49038;47.600;19.242;2022-08-21T15:08:35;3.42;;;2.12;;
62933;SDS011;49038;47.600;19.242;2022-08-21T15:11:37;2.20;;;1.73;;
62933;SDS011;49038;47.600;19.242;2022-08-21T15:14:43;3.15;;;1.85;;
62933;SDS011;49038;47.600;19.242;2022-08-21T15:17:45;2.55;;;2.15;;
62933;SDS011;49038;47.600;19.242;2022-08-21T15:20:49;2.62;;;1.92;;
62933;SDS011;49038;47.600;19.242;2022-08-21T15:23:52;2.28;;;1.92;;
62933;SDS011;49038;47.600;19.242;2022-08-21T15:26:55;5.43;;;2.33;;
62933;SDS011;49038;47.600;19.242;2022-08-21T15:29:58;4.50;;;2.17;;
62933;SDS011;49038;47.600;19.242;2022-08-21T15:33:01;3.55;;;2.10;;
62933;SDS011;49038;47.600;19.242;2022-08-21T15:36:03;8.38;;;2.62;;
62933;SDS011;49038;47.600;19.242;2022-08-21T15:39:05;3.65;;;2.40;;
62933;SDS011;49038;47.600;19.242;2022-08-21T15:42:08;11.73;;;3.55;;
62933;SDS011;49038;47.600;19.242;2022-08-21T15:45:12;7.55;;;2.83;;
62933;SDS011;49038;47.600;19.242;2022-08-21T15:48:15;3.40;;;2.25;;
62933;SDS011;49038;47.600;19.242;2022-08-21T15:51:17;4.68;;;2.78;;
62933;SDS011;49038;47.600;19.242;2022-08-21T15:54:22;2.40;;;2.20;;
62933;SDS011;49038;47.600;19.242;2022-08-21T15:57:25;14.95;;;5.55;;
62933;SDS011;49038;47.600;19.242;2022-08-21T16:00:28;4.65;;;3.25;;
62933;SDS011;49038;47.600;19.242;2022-08-21T16:03:31;4.05;;;2.67;;
62933;SDS011;49038;47.600;19.242;2022-08-21T16:06:34;3.22;;;2.37;;
62933;SDS011;49038;47.600;19.242;2022-08-21T16:09:54;6.32;;;3.53;;
62933;SDS011;49038;47.600;19.242;2022-08-21T16:12:57;5.32;;;2.80;;
62933;SDS011;49038;47.600;19.242;2022-08-21T16:16:03;7.50;;;3.17;;
62933;SDS011;49038;47.600;19.242;2022-08-21T16:19:06;4.82;;;2.85;;
62933;SDS011;49038;47.600;19.242;2022-08-21T16:22:08;3.58;;;2.83;;
62933;SDS011;49038;47.600;19.242;2022-08-21T16:25:11;4.97;;;3.00;;
62933;SDS011;49038;47.600;19.242;2022-08-21T16:28:16;9.43;;;3.10;;
62933;SDS011;49038;47.600;19.242;2022-08-21T16:31:19;5.97;;;2.60;;
62933;SDS011;49038;47.600;19.242;2022-08-21T16:34:21;4.30;;;2.40;;
62933;SDS011;49038;47.600;19.242;2022-08-21T16:37:23;4.22;;;2.83;;
62933;SDS011;49038;47.600;19.242;2022-08-21T16:40:26;4.72;;;1.98;;
62933;SDS011;49038;47.600;19.242;2022-08-21T16:43:29;3.83;;;2.37;;
62933;SDS011;49038;47.600;19.242;2022-08-21T16:46:34;3.65;;;1.90;;
62933;SDS011;49038;47.600;19.242;2022-08-21T16:49:37;2.90;;;2.37;;
62933;SDS011;49038;47.600;19.242;2022-08-21T16:52:39;4.90;;;1.98;;
62933;SDS011;49038;47.600;19.242;2022-08-21T16:55:43;2.75;;;2.15;;
62933;SDS011;49038;47.600;19.242;2022-08-21T16:58:46;3.90;;;2.60;;
62933;SDS011;49038;47.600;19.242;2022-08-21T17:01:53;7.85;;;2.30;;
62933;SDS011;49038;47.600;19.242;2022-08-21T17:04:55;3.05;;;2.10;;
62933;SDS011;49038;47.600;19.242;2022-08-21T17:07:58;2.72;;;1.80;;
62933;SDS011;49038;47.600;19.242;2022-08-21T17:11:01;3.58;;;1.98;;
62933;SDS011;49038;47.600;19.242;2022-08-21T17:14:06;2.83;;;1.90;;
62933;SDS011;49038;47.600;19.242;2022-08-21T17:17:12;3.05;;;2.10;;
62933;SDS011;49038;47.600;19.242;2022-08-21T17:20:15;3.53;;;2.05;;
62933;SDS011;49038;47.600;19.242;2022-08-21T17:23:18;3.35;;;2.25;;
62933;SDS011;49038;47.600;19.242;2022-08-21T17:26:21;4.10;;;2.25;;
62933;SDS011;49038;47.600;19.242;2022-08-21T17:29:26;4.85;;;2.42;;
62933;SDS011;49038;47.600;19.242;2022-08-21T17:32:29;2.75;;;1.92;;
62933;SDS011;49038;47.600;19.242;2022-08-21T17:35:31;6.53;;;2.20;;
62933;SDS011;49038;47.600;19.242;2022-08-21T17:38:33;4.93;;;2.60;;
62933;SDS011;49038;47.600;19.242;2022-08-21T17:41:38;4.60;;;2.12;;
62933;SDS011;49038;47.600;19.242;2022-08-21T17:44:42;3.22;;;2.50;;
62933;SDS011;49038;47.600;19.242;2022-08-21T17:47:46;6.53;;;2.28;;
62933;SDS011;49038;47.600;19.242;2022-08-21T17:50:48;4.93;;;2.78;;
62933;SDS011;49038;47.600;19.242;2022-08-21T17:53:51;2.75;;;2.35;;
62933;SDS011;49038;47.600;19.242;2022-08-21T17:56:54;3.92;;;2.50;;
62933;SDS011;49038;47.600;19.242;2022-08-21T17:59:56;5.18;;;2.55;;
62933;SDS011;49038;47.600;19.242;2022-08-21T18:03:04;5.45;;;2.30;;
62933;SDS011;49038;47.600;19.242;2022-08-21T18:06:10;4.15;;;2.30;;
62933;SDS011;49038;47.600;19.242;2022-08-21T18:09:18;3.47;;;2.00;;
62933;SDS011;49038;47.600;19.242;2022-08-21T18:12:21;4.53;;;2.30;;
62933;SDS011;49038;47.600;19.242;2022-08-21T18:15:23;2.40;;;1.83;;
62933;SDS011;49038;47.600;19.242;2022-08-21T18:18:26;4.15;;;1.70;;
62933;SDS011;49038;47.600;19.242;2022-08-21T18:21:29;2.92;;;1.95;;
62933;SDS011;49038;47.600;19.242;2022-08-21T18:24:32;2.50;;;1.70;;
62933;SDS011;49038;47.600;19.242;2022-08-21T18:27:34;6.60;;;2.40;;
62933;SDS011;49038;47.600;19.242;2022-08-21T18:30:38;6.15;;;2.42;;
62933;SDS011;49038;47.600;19.242;2022-08-21T18:33:41;4.68;;;1.90;;
62933;SDS011;49038;47.600;19.242;2022-08-21T18:37:19;3.55;;;1.70;;
62933;SDS011;49038;47.600;19.242;2022-08-21T18:40:45;3.95;;;1.90;;
62933;SDS011;49038;47.600;19.242;2022-08-21T18:44:16;3.35;;;1.80;;
62933;SDS011;49038;47.600;19.242;2022-08-21T18:47:23;3.97;;;2.28;;
62933;SDS011;49038;47.600;19.242;2022-08-21T18:50:30;5.25;;;2.85;;
62933;SDS011;49038;47.600;19.242;2022-08-21T18:53:35;2.78;;;1.80;;
62933;SDS011;49038;47.600;19.242;2022-08-21T18:56:39;2.97;;;2.12;;
62933;SDS011;49038;47.600;19.242;2022-08-21T18:59:42;6.32;;;2.47;;
62933;SDS011;49038;47.600;19.242;2022-08-21T19:02:44;9.63;;;2.25;;
62933;SDS011;49038;47.600;19.242;2022-08-21T19:05:47;5.20;;;2.20;;
62933;SDS011;49038;47.600;19.242;2022-08-21T19:08:50;2.78;;;2.03;;
62933;SDS011;49038;47.600;19.242;2022-08-21T19:11:52;6.00;;;2.35;;
62933;SDS011;49038;47.600;19.242;2022-08-21T19:14:55;5.47;;;2.83;;
62933;SDS011;49038;47.600;19.242;2022-08-21T19:17:58;3.95;;;1.92;;
62933;SDS011;49038;47.600;19.242;2022-08-21T19:21:01;4.90;;;1.98;;
62933;SDS011;49038;47.600;19.242;2022-08-21T19:24:03;8.65;;;2.28;;
62933;SDS011;49038;47.600;19.242;2022-08-21T19:27:18;5.45;;;2.55;;
62933;SDS011;49038;47.600;19.242;2022-08-21T19:30:24;6.15;;;2.60;;
62933;SDS011;49038;47.600;19.242;2022-08-21T19:33:29;2.62;;;1.80;;
62933;SDS011;49038;47.600;19.242;2022-08-21T19:36:36;3.10;;;2.12;;
62933;SDS011;49038;47.600;19.242;2022-08-21T19:39:38;9.10;;;2.75;;
62933;SDS011;49038;47.600;19.242;2022-08-21T19:42:47;3.05;;;2.40;;
62933;SDS011;49038;47.600;19.242;2022-08-21T19:45:53;4.72;;;2.45;;
62933;SDS011;49038;47.600;19.242;2022-08-21T19:48:57;2.75;;;2.45;;
62933;SDS011;49038;47.600;19.242;2022-08-21T19:52:00;5.40;;;3.05;;
62933;SDS011;49038;47.600;19.242;2022-08-21T19:55:23;5.25;;;2.72;;